sensor_id;sensor_type;location;lat;lon;timestamp;pressure;altitude;pressure_sealevel;temperature;humidity
39823;BME280;25499;53.958;10.970;2023-03-20T07:10:56;101481.19;;;7.40;100.00
39823;BME280;25499;53.958;10.970;2023-03-20T07:13:23;101488.03;;;7.37;100.00
39823;BME280;25499;53.958;10.970;2023-03-20T07:15:48;101485.38;;;7.35;100.00
39823;BME280;25499;53.958;10.970;2023-03-20T07:18:14;101483.78;;;7.40;100.00
39823;BME280;25499;53.958;10.970;2023-03-20T07:20:39;101482.66;;;7.29;100.00
39823;BME280;25499;53.958;10.970;2023-03-20T07:23:05;101480.13;;;7.32;100.00
39823;BME280;25499;53.958;10.970;2023-03-20T07:25:30;101477.41;;;7.26;100.00
39823;BME280;25499;53.958;10.970;2023-03-20T07:27:56;101478.41;;;7.33;100.00
39823;BME280;25499;53.958;10.970;2023-03-20T07:30:22;101484.41;;;7.30;100.00
39823;BME280;25499;53.958;10.970;2023-03-20T07:32:47;101489.94;;;7.45;100.00
39823;BME280;25499;53.958;10.970;2023-03-20T07:35:13;101492.44;;;7.42;100.00
39823;BME280;25499;53.958;10.970;2023-03-20T07:37:38;101490.69;;;7.41;100.00
39823;BME280;25499;53.958;10.970;2023-03-20T07:40:04;101494.06;;;7.37;100.00
39823;BME280;25499;53.958;10.970;2023-03-20T07:42:30;101495.31;;;7.56;100.00
39823;BME280;25499;53.958;10.970;2023-03-20T07:44:55;101487.41;;;7.50;100.00
39823;BME280;25499;53.958;10.970;2023-03-20T07:47:21;101490.13;;;7.55;100.00
39823;BME280;25499;53.958;10.970;2023-03-20T07:49:46;101484.06;;;7.54;100.00
39823;BME280;25499;53.958;10.970;2023-03-20T07:52:12;101492.69;;;7.55;100.00
39823;BME280;25499;53.958;10.970;2023-03-20T07:54:38;101498.78;;;7.57;100.00
39823;BME280;25499;53.958;10.970;2023-03-20T07:57:03;101494.31;;;7.50;100.00
39823;BME280;25499;53.958;10.970;2023-03-20T07:59:30;101503.22;;;7.61;100.00
39823;BME280;25499;53.958;10.970;2023-03-20T08:01:55;101494.75;;;7.70;100.00
39823;BME280;25499;53.958;10.970;2023-03-20T08:04:21;101498.16;;;7.69;100.00
39823;BME280;25499;53.958;10.970;2023-03-20T08:06:47;101495.72;;;7.75;100.00
39823;BME280;25499;53.958;10.970;2023-03-20T08:09:13;101497.44;;;7.74;100.00
39823;BME280;25499;53.958;10.970;2023-03-20T08:11:38;101499.34;;;7.83;100.00
39823;BME280;25499;53.958;10.970;2023-03-20T08:14:04;101491.59;;;7.84;100.00
39823;BME280;25499;53.958;10.970;2023-03-20T08:16:29;101489.03;;;7.86;100.00
39823;BME280;25499;53.958;10.970;2023-03-20T08:18:55;101497.63;;;7.83;100.00
39823;BME280;25499;53.958;10.970;2023-03-20T08:21:29;101493.25;;;7.81;100.00
39823;BME280;25499;53.958;10.970;2023-03-20T08:23:54;101500.22;;;7.83;100.00
39823;BME280;25499;53.958;10.970;2023-03-20T08:26:21;101499.22;;;7.77;100.00
39823;BME280;25499;53.958;10.970;2023-03-20T08:28:47;101507.22;;;7.88;100.00
39823;BME280;25499;53.958;10.970;2023-03-20T08:31:13;101500.31;;;7.88;100.00
39823;BME280;25499;53.958;10.970;2023-03-20T08:33:39;101496.13;;;7.95;100.00
39823;BME280;25499;53.958;10.970;2023-03-20T08:36:05;101501.66;;;8.13;100.00
39823;BME280;25499;53.958;10.970;2023-03-20T08:38:31;101498.03;;;8.05;100.00
39823;BME280;25499;53.958;10.970;2023-03-20T08:40:56;101499.22;;;8.22;100.00
39823;BME280;25499;53.958;10.970;2023-03-20T08:43:22;101497.59;;;8.28;100.00
39823;BME280;25499;53.958;10.970;2023-03-20T08:45:48;101497.41;;;8.17;100.00
39823;BME280;25499;53.958;10.970;2023-03-20T08:48:13;101495.78;;;8.22;100.00
39823;BME280;25499;53.958;10.970;2023-03-20T08:50:39;101491.94;;;8.01;100.00
39823;BME280;25499;53.958;10.970;2023-03-20T08:53:05;101500.84;;;8.16;100.00
39823;BME280;25499;53.958;10.970;2023-03-20T08:55:31;101492.31;;;8.21;100.00
39823;BME280;25499;53.958;10.970;2023-03-20T08:57:56;101490.63;;;8.24;100.00
39823;BME280;25499;53.958;10.970;2023-03-20T09:00:22;101486.16;;;8.16;100.00
39823;BME280;25499;53.958;10.970;2023-03-20T09:02:49;101494.78;;;8.15;100.00
39823;BME280;25499;53.958;10.970;2023-03-20T09:05:15;101495.66;;;8.16;100.00
39823;BME280;25499;53.958;10.970;2023-03-20T09:07:41;101495.53;;;8.08;100.00
39823;BME280;25499;53.958;10.970;2023-03-20T09:10:07;101496.88;;;7.91;100.00
39823;BME280;25499;53.958;10.970;2023-03-20T09:12:33;101499.53;;;7.94;100.00
39823;BME280;25499;53.958;10.970;2023-03-20T09:14:59;101509.25;;;8.04;100.00
39823;BME280;25499;53.958;10.970;2023-03-20T09:17:25;101508.34;;;8.02;100.00
39823;BME280;25499;53.958;10.970;2023-03-20T09:19:51;101507.25;;;7.89;100.00
39823;BME280;25499;53.958;10.970;2023-03-20T09:22:16;101510.19;;;8.08;100.00
39823;BME280;25499;53.958;10.970;2023-03-20T09:24:45;101511.09;;;8.08;100.00
39823;BME280;25499;53.958;10.970;2023-03-20T09:27:10;101515.25;;;8.00;100.00
39823;BME280;25499;53.958;10.970;2023-03-20T09:29:39;101513.53;;;8.02;100.00
39823;BME280;25499;53.958;10.970;2023-03-20T09:32:04;101516.78;;;7.92;100.00
39823;BME280;25499;53.958;10.970;2023-03-20T09:34:30;101516.97;;;8.01;100.00
39823;BME280;25499;53.958;10.970;2023-03-20T09:36:55;101519.47;;;7.95;100.00
39823;BME280;25499;53.958;10.970;2023-03-20T09:39:21;101514.25;;;7.93;100.00
39823;BME280;25499;53.958;10.970;2023-03-20T09:41:47;101520.13;;;7.84;100.00
39823;BME280;25499;53.958;10.970;2023-03-20T09:47:53;101530.59;;;7.91;100.00
39823;BME280;25499;53.958;10.970;2023-03-20T09:50:37;101534.22;;;7.99;100.00
39823;BME280;25499;53.958;10.970;2023-03-20T09:53:19;101539.09;;;7.83;100.00
39823;BME280;25499;53.958;10.970;2023-03-20T09:55:47;101536.50;;;7.83;100.00
39823;BME280;25499;53.958;10.970;2023-03-20T09:58:23;101542.81;;;7.96;100.00
39823;BME280;25499;53.958;10.970;2023-03-20T10:00:50;101541.41;;;8.12;100.00
39823;BME280;25499;53.958;10.970;2023-03-20T10:03:27;101539.84;;;8.20;100.00
39823;BME280;25499;53.958;10.970;2023-03-20T10:05:58;101535.50;;;8.21;100.00
39823;BME280;25499;53.958;10.970;2023-03-20T10:08:36;101531.09;;;8.15;100.00
39823;BME280;25499;53.958;10.970;2023-03-20T10:11:23;101531.03;;;8.12;100.00
39823;BME280;25499;53.958;10.970;2023-03-20T10:14:06;101540.66;;;8.19;100.00
39823;BME280;25499;53.958;10.970;2023-03-20T10:19:48;101536.34;;;8.18;100.00
39823;BME280;25499;53.958;10.970;2023-03-20T10:22:33;101532.84;;;8.16;100.00
39823;BME280;25499;53.958;10.970;2023-03-20T10:25:22;101535.22;;;8.06;100.00
39823;BME280;25499;53.958;10.970;2023-03-20T10:28:02;101534.28;;;8.02;100.00
39823;BME280;25499;53.958;10.970;2023-03-20T10:38:48;101522.22;;;8.04;100.00
39823;BME280;25499;53.958;10.970;2023-03-20T10:41:19;101520.56;;;8.08;100.00
39823;BME280;25499;53.958;10.970;2023-03-20T10:43:48;101529.31;;;8.11;100.00
39823;BME280;25499;53.958;10.970;2023-03-20T10:46:31;101524.06;;;8.10;100.00
39823;BME280;25499;53.958;10.970;2023-03-20T10:48:59;101520.63;;;8.11;100.00
39823;BME280;25499;53.958;10.970;2023-03-20T10:51:53;101519.94;;;8.21;100.00
39823;BME280;25499;53.958;10.970;2023-03-20T10:54:25;101519.09;;;8.20;100.00
39823;BME280;25499;53.958;10.970;2023-03-20T10:56:54;101517.00;;;8.47;100.00
39823;BME280;25499;53.958;10.970;2023-03-20T10:59:35;101519.78;;;8.57;100.00
39823;BME280;25499;53.958;10.970;2023-03-20T11:02:11;101520.00;;;8.70;100.00
39823;BME280;25499;53.958;10.970;2023-03-20T11:04:36;101517.53;;;8.79;100.00
39823;BME280;25499;53.958;10.970;2023-03-20T11:09:42;101497.38;;;8.63;100.00
39823;BME280;25499;53.958;10.970;2023-03-20T11:12:16;101497.78;;;8.87;100.00
39823;BME280;25499;53.958;10.970;2023-03-20T11:14:44;101498.78;;;8.95;100.00
39823;BME280;25499;53.958;10.970;2023-03-20T11:17:10;101493.59;;;8.97;100.00
39823;BME280;25499;53.958;10.970;2023-03-20T11:19:38;101498.06;;;9.06;100.00
39823;BME280;25499;53.958;10.970;2023-03-20T11:22:22;101491.16;;;9.08;100.00
39823;BME280;25499;53.958;10.970;2023-03-20T11:24:53;101484.94;;;8.95;100.00
39823;BME280;25499;53.958;10.970;2023-03-20T11:27:25;101482.97;;;8.82;100.00
39823;BME280;25499;53.958;10.970;2023-03-20T11:29:52;101472.31;;;8.65;100.00
39823;BME280;25499;53.958;10.970;2023-03-20T11:32:30;101474.09;;;8.66;100.00
39823;BME280;25499;53.958;10.970;2023-03-20T11:35:15;101466.19;;;8.59;100.00
39823;BME280;25499;53.958;10.970;2023-03-20T11:37:45;101459.94;;;8.48;100.00
39823;BME280;25499;53.958;10.970;2023-03-20T11:42:36;101466.16;;;8.58;100.00
39823;BME280;25499;53.958;10.970;2023-03-20T11:45:05;101461.06;;;8.63;100.00
39823;BME280;25499;53.958;10.970;2023-03-20T11:47:33;101457.56;;;8.61;100.00
39823;BME280;25499;53.958;10.970;2023-03-20T11:50:02;101465.34;;;8.62;100.00
39823;BME280;25499;53.958;10.970;2023-03-20T11:52:32;101463.56;;;8.58;100.00
39823;BME280;25499;53.958;10.970;2023-03-20T11:54:59;101459.31;;;8.63;100.00
39823;BME280;25499;53.958;10.970;2023-03-20T11:57:31;101461.84;;;8.60;100.00
39823;BME280;25499;53.958;10.970;2023-03-20T12:00:01;101454.16;;;8.65;100.00
39823;BME280;25499;53.958;10.970;2023-03-20T12:02:26;101454.84;;;8.54;100.00
39823;BME280;25499;53.958;10.970;2023-03-20T12:04:52;101460.13;;;8.59;100.00
39823;BME280;25499;53.958;10.970;2023-03-20T12:09:54;101461.69;;;8.49;100.00
39823;BME280;25499;53.958;10.970;2023-03-20T12:15:29;101458.25;;;8.50;100.00
39823;BME280;25499;53.958;10.970;2023-03-20T12:26:37;101457.03;;;8.33;100.00
39823;BME280;25499;53.958;10.970;2023-03-20T12:29:28;101455.63;;;8.49;100.00
39823;BME280;25499;53.958;10.970;2023-03-20T12:32:01;101462.63;;;8.53;100.00
39823;BME280;25499;53.958;10.970;2023-03-20T12:34:35;101461.81;;;8.55;100.00
39823;BME280;25499;53.958;10.970;2023-03-20T12:37:04;101449.59;;;8.51;100.00
39823;BME280;25499;53.958;10.970;2023-03-20T12:39:57;101447.00;;;8.50;100.00
39823;BME280;25499;53.958;10.970;2023-03-20T12:43:03;101447.88;;;8.52;100.00
39823;BME280;25499;53.958;10.970;2023-03-20T12:45:40;101451.19;;;8.43;100.00
39823;BME280;25499;53.958;10.970;2023-03-20T12:54:17;101452.31;;;8.57;100.00
39823;BME280;25499;53.958;10.970;2023-03-20T13:02:33;101451.69;;;8.72;100.00
39823;BME280;25499;53.958;10.970;2023-03-20T13:08:08;101440.56;;;8.81;100.00
39823;BME280;25499;53.958;10.970;2023-03-20T13:10:48;101438.94;;;8.88;100.00
39823;BME280;25499;53.958;10.970;2023-03-20T13:13:34;101433.78;;;8.89;100.00
39823;BME280;25499;53.958;10.970;2023-03-20T13:16:21;101423.47;;;8.95;100.00
39823;BME280;25499;53.958;10.970;2023-03-20T13:24:41;101405.16;;;8.86;100.00
39823;BME280;25499;53.958;10.970;2023-03-20T13:27:35;101403.50;;;8.91;100.00
39823;BME280;25499;53.958;10.970;2023-03-20T13:30:18;101414.94;;;9.06;100.00
39823;BME280;25499;53.958;10.970;2023-03-20T13:32:51;101407.91;;;8.97;100.00
39823;BME280;25499;53.958;10.970;2023-03-20T13:38:00;101396.38;;;8.78;100.00
39823;BME280;25499;53.958;10.970;2023-03-20T13:40:32;101396.13;;;8.61;100.00
39823;BME280;25499;53.958;10.970;2023-03-20T13:45:49;101393.84;;;8.81;100.00
39823;BME280;25499;53.958;10.970;2023-03-20T13:48:35;101405.41;;;9.03;100.00
39823;BME280;25499;53.958;10.970;2023-03-20T13:51:26;101405.63;;;9.20;99.93
39823;BME280;25499;53.958;10.970;2023-03-20T14:04:42;101360.69;;;9.27;95.31
39823;BME280;25499;53.958;10.970;2023-03-20T14:07:32;101358.38;;;9.55;94.57
39823;BME280;25499;53.958;10.970;2023-03-20T14:10:43;101361.09;;;9.64;93.61
39823;BME280;25499;53.958;10.970;2023-03-20T14:12:47;101360.25;;;9.68;92.94
39823;BME280;25499;53.958;10.970;2023-03-20T14:15:13;101352.47;;;9.68;92.08
39823;BME280;25499;53.958;10.970;2023-03-20T14:17:43;101362.88;;;9.70;91.98
39823;BME280;25499;53.958;10.970;2023-03-20T14:22:58;101363.75;;;9.67;91.86
39823;BME280;25499;53.958;10.970;2023-03-20T14:25:24;101354.06;;;9.57;91.16
39823;BME280;25499;53.958;10.970;2023-03-20T14:28:07;101353.94;;;9.43;91.04
39823;BME280;25499;53.958;10.970;2023-03-20T14:30:47;101359.97;;;9.41;92.39
39823;BME280;25499;53.958;10.970;2023-03-20T14:35:47;101361.25;;;9.03;93.08
39823;BME280;25499;53.958;10.970;2023-03-20T14:46:39;101366.94;;;8.76;93.39
39823;BME280;25499;53.958;10.970;2023-03-20T14:52:01;101364.34;;;8.76;94.46
39823;BME280;25499;53.958;10.970;2023-03-20T14:54:39;101369.56;;;8.77;93.63
39823;BME280;25499;53.958;10.970;2023-03-20T14:57:28;101379.13;;;8.82;93.69
39823;BME280;25499;53.958;10.970;2023-03-20T14:59:54;101367.88;;;8.81;93.20
39823;BME280;25499;53.958;10.970;2023-03-20T15:02:34;101360.94;;;8.80;92.08
39823;BME280;25499;53.958;10.970;2023-03-20T15:05:02;101355.75;;;8.80;92.22
39823;BME280;25499;53.958;10.970;2023-03-20T15:07:30;101357.44;;;8.78;92.41
39823;BME280;25499;53.958;10.970;2023-03-20T15:09:59;101370.44;;;8.80;92.32
39823;BME280;25499;53.958;10.970;2023-03-20T15:12:30;101347.94;;;8.78;90.83
39823;BME280;25499;53.958;10.970;2023-03-20T15:14:59;101345.31;;;8.77;90.39
39823;BME280;25499;53.958;10.970;2023-03-20T15:17:43;101355.72;;;8.78;90.96
39823;BME280;25499;53.958;10.970;2023-03-20T15:20:18;101352.22;;;8.75;90.91
39823;BME280;25499;53.958;10.970;2023-03-20T15:25:16;101361.75;;;8.76;91.65
39823;BME280;25499;53.958;10.970;2023-03-20T15:27:42;101351.19;;;8.65;90.47
39823;BME280;25499;53.958;10.970;2023-03-20T15:30:12;101353.75;;;8.61;90.21
39823;BME280;25499;53.958;10.970;2023-03-20T15:32:40;101359.06;;;8.70;90.63
39823;BME280;25499;53.958;10.970;2023-03-20T15:35:15;101362.53;;;8.72;91.54
39823;BME280;25499;53.958;10.970;2023-03-20T15:37:43;101359.19;;;8.77;91.85
39823;BME280;25499;53.958;10.970;2023-03-20T15:40:13;101357.41;;;8.75;91.94
39823;BME280;25499;53.958;10.970;2023-03-20T15:42:52;101357.34;;;8.72;91.99
39823;BME280;25499;53.958;10.970;2023-03-20T15:45:28;101359.16;;;8.76;92.34
39823;BME280;25499;53.958;10.970;2023-03-20T15:50:35;101365.25;;;8.78;93.74
39823;BME280;25499;53.958;10.970;2023-03-20T15:53:03;101366.09;;;8.78;94.17
39823;BME280;25499;53.958;10.970;2023-03-20T15:55:30;101353.03;;;8.71;93.83
39823;BME280;25499;53.958;10.970;2023-03-20T15:57:57;101354.03;;;8.82;94.12
39823;BME280;25499;53.958;10.970;2023-03-20T16:00:30;101342.72;;;8.77;93.51
39823;BME280;25499;53.958;10.970;2023-03-20T16:03:00;101341.88;;;8.78;92.99
39823;BME280;25499;53.958;10.970;2023-03-20T16:05:27;101329.69;;;8.74;92.65
39823;BME280;25499;53.958;10.970;2023-03-20T16:07:54;101332.22;;;8.69;92.50
39823;BME280;25499;53.958;10.970;2023-03-20T16:10:32;101348.63;;;8.67;93.32
39823;BME280;25499;53.958;10.970;2023-03-20T16:13:03;101345.25;;;8.71;93.30
39823;BME280;25499;53.958;10.970;2023-03-20T16:15:29;101356.66;;;8.84;93.65
39823;BME280;25499;53.958;10.970;2023-03-20T16:17:58;101350.47;;;8.72;93.08
39823;BME280;25499;53.958;10.970;2023-03-20T16:20:28;101365.13;;;8.70;93.85
39823;BME280;25499;53.958;10.970;2023-03-20T16:22:59;101376.38;;;8.71;94.49
39823;BME280;25499;53.958;10.970;2023-03-20T16:25:25;101371.97;;;8.67;94.93
39823;BME280;25499;53.958;10.970;2023-03-20T16:27:51;101366.56;;;8.51;95.20
39823;BME280;25499;53.958;10.970;2023-03-20T16:30:23;101377.78;;;8.49;96.03
39823;BME280;25499;53.958;10.970;2023-03-20T16:32:58;101388.16;;;8.47;96.96
39823;BME280;25499;53.958;10.970;2023-03-20T16:35:38;101390.66;;;8.43;97.77
39823;BME280;25499;53.958;10.970;2023-03-20T16:38:26;101391.41;;;8.37;98.14
39823;BME280;25499;53.958;10.970;2023-03-20T16:41:12;101397.41;;;8.34;98.65
39823;BME280;25499;53.958;10.970;2023-03-20T16:43:38;101390.53;;;8.38;98.64
39823;BME280;25499;53.958;10.970;2023-03-20T16:46:05;101390.41;;;8.29;99.37
39823;BME280;25499;53.958;10.970;2023-03-20T16:48:35;101398.25;;;8.32;99.69
39823;BME280;25499;53.958;10.970;2023-03-20T16:51:25;101389.66;;;8.36;99.60
39823;BME280;25499;53.958;10.970;2023-03-20T16:53:57;101387.69;;;8.22;99.95
39823;BME280;25499;53.958;10.970;2023-03-20T16:56:33;101395.38;;;8.18;100.00
39823;BME280;25499;53.958;10.970;2023-03-20T16:59:08;101402.22;;;8.11;100.00
39823;BME280;25499;53.958;10.970;2023-03-20T17:01:40;101406.72;;;8.21;100.00
39823;BME280;25499;53.958;10.970;2023-03-20T17:04:17;101405.75;;;8.18;100.00
39823;BME280;25499;53.958;10.970;2023-03-20T17:06:46;101415.09;;;8.07;100.00
39823;BME280;25499;53.958;10.970;2023-03-20T17:11:39;101414.41;;;8.17;100.00
39823;BME280;25499;53.958;10.970;2023-03-20T17:14:08;101410.97;;;8.19;100.00
39823;BME280;25499;53.958;10.970;2023-03-20T17:16:34;101405.56;;;8.06;100.00
39823;BME280;25499;53.958;10.970;2023-03-20T17:19:09;101410.59;;;7.96;100.00
39823;BME280;25499;53.958;10.970;2023-03-20T17:21:37;101413.25;;;8.01;100.00
39823;BME280;25499;53.958;10.970;2023-03-20T17:24:02;101415.84;;;8.01;100.00
39823;BME280;25499;53.958;10.970;2023-03-20T17:26:28;101415.59;;;7.87;100.00
39823;BME280;25499;53.958;10.970;2023-03-20T17:28:54;101420.84;;;7.90;100.00
39823;BME280;25499;53.958;10.970;2023-03-20T17:31:19;101415.53;;;7.82;100.00
39823;BME280;25499;53.958;10.970;2023-03-20T17:33:45;101421.59;;;7.84;100.00
39823;BME280;25499;53.958;10.970;2023-03-20T17:36:26;101429.44;;;7.88;100.00
39823;BME280;25499;53.958;10.970;2023-03-20T17:38:55;101424.97;;;7.80;100.00
39823;BME280;25499;53.958;10.970;2023-03-20T17:41:22;101433.59;;;7.79;100.00
39823;BME280;25499;53.958;10.970;2023-03-20T17:43:48;101430.34;;;7.90;100.00
39823;BME280;25499;53.958;10.970;2023-03-20T17:46:28;101431.13;;;7.85;100.00
39823;BME280;25499;53.958;10.970;2023-03-20T17:49:02;101431.88;;;7.80;100.00
39823;BME280;25499;53.958;10.970;2023-03-20T17:51:29;101435.22;;;7.73;100.00
39823;BME280;25499;53.958;10.970;2023-03-20T17:53:55;101438.78;;;7.79;100.00
39823;BME280;25499;53.958;10.970;2023-03-20T17:56:23;101435.09;;;7.68;100.00
39823;BME280;25499;53.958;10.970;2023-03-20T17:58:49;101441.19;;;7.70;100.00
39823;BME280;25499;53.958;10.970;2023-03-20T18:01:15;101441.97;;;7.66;100.00
39823;BME280;25499;53.958;10.970;2023-03-20T18:03:42;101449.00;;;7.72;100.00
39823;BME280;25499;53.958;10.970;2023-03-20T18:06:14;101449.75;;;7.66;100.00
39823;BME280;25499;53.958;10.970;2023-03-20T18:08:40;101445.34;;;7.62;100.00
39823;BME280;25499;53.958;10.970;2023-03-20T18:11:07;101452.28;;;7.63;100.00
39823;BME280;25499;53.958;10.970;2023-03-20T18:13:33;101458.19;;;7.56;100.00
39823;BME280;25499;53.958;10.970;2023-03-20T18:15:58;101453.03;;;7.57;100.00
39823;BME280;25499;53.958;10.970;2023-03-20T18:18:24;101455.66;;;7.59;100.00
39823;BME280;25499;53.958;10.970;2023-03-20T18:20:50;101457.41;;;7.60;100.00
39823;BME280;25499;53.958;10.970;2023-03-20T18:23:16;101462.47;;;7.54;100.00
39823;BME280;25499;53.958;10.970;2023-03-20T18:25:41;101459.03;;;7.55;100.00
39823;BME280;25499;53.958;10.970;2023-03-20T18:28:11;101458.94;;;7.52;100.00
39823;BME280;25499;53.958;10.970;2023-03-20T18:30:40;101456.50;;;7.58;100.00
39823;BME280;25499;53.958;10.970;2023-03-20T18:33:06;101453.66;;;7.45;100.00
39823;BME280;25499;53.958;10.970;2023-03-20T18:35:32;101453.53;;;7.39;100.00
39823;BME280;25499;53.958;10.970;2023-03-20T18:37:58;101451.81;;;7.41;100.00
39823;BME280;25499;53.958;10.970;2023-03-20T18:40:32;101448.13;;;7.28;100.00
39823;BME280;25499;53.958;10.970;2023-03-20T18:42:58;101451.94;;;7.46;100.00
39823;BME280;25499;53.958;10.970;2023-03-20T18:45:25;101451.03;;;7.44;100.00
39823;BME280;25499;53.958;10.970;2023-03-20T18:47:51;101451.50;;;7.26;100.00
39823;BME280;25499;53.958;10.970;2023-03-20T18:50:31;101449.84;;;7.29;100.00
39823;BME280;25499;53.958;10.970;2023-03-20T18:52:58;101456.78;;;7.31;100.00
39823;BME280;25499;53.958;10.970;2023-03-20T18:55:25;101454.25;;;7.32;100.00
39823;BME280;25499;53.958;10.970;2023-03-20T18:57:51;101458.44;;;7.27;100.00
39823;BME280;25499;53.958;10.970;2023-03-20T19:00:23;101453.97;;;7.20;100.00
39823;BME280;25499;53.958;10.970;2023-03-20T19:02:51;101460.13;;;7.25;100.00
39823;BME280;25499;53.958;10.970;2023-03-20T19:05:17;101454.41;;;7.41;100.00
39823;BME280;25499;53.958;10.970;2023-03-20T19:07:46;101453.19;;;7.24;100.00
39823;BME280;25499;53.958;10.970;2023-03-20T19:10:34;101452.22;;;7.19;100.00
39823;BME280;25499;53.958;10.970;2023-03-20T19:13:01;101447.94;;;7.21;100.00
39823;BME280;25499;53.958;10.970;2023-03-20T19:15:29;101444.88;;;7.39;100.00
39823;BME280;25499;53.958;10.970;2023-03-20T19:17:55;101437.72;;;7.27;100.00
39823;BME280;25499;53.958;10.970;2023-03-20T19:20:39;101439.53;;;7.31;100.00
39823;BME280;25499;53.958;10.970;2023-03-20T19:23:08;101436.50;;;7.11;100.00
39823;BME280;25499;53.958;10.970;2023-03-20T19:25:35;101450.53;;;7.21;100.00
39823;BME280;25499;53.958;10.970;2023-03-20T19:28:01;101449.63;;;7.19;100.00
39823;BME280;25499;53.958;10.970;2023-03-20T19:30:29;101448.22;;;7.33;100.00
39823;BME280;25499;53.958;10.970;2023-03-20T19:32:54;101457.75;;;7.36;100.00
39823;BME280;25499;53.958;10.970;2023-03-20T19:35:20;101459.19;;;7.23;100.00
39823;BME280;25499;53.958;10.970;2023-03-20T19:37:46;101459.13;;;7.18;100.00
39823;BME280;25499;53.958;10.970;2023-03-20T19:40:28;101463.34;;;7.15;100.00
39823;BME280;25499;53.958;10.970;2023-03-20T19:42:54;101464.22;;;7.15;100.00
39823;BME280;25499;53.958;10.970;2023-03-20T19:45:24;101454.63;;;7.09;100.00
39823;BME280;25499;53.958;10.970;2023-03-20T19:47:50;101455.41;;;7.07;100.00
39823;BME280;25499;53.958;10.970;2023-03-20T19:50:26;101457.31;;;7.16;100.00
39823;BME280;25499;53.958;10.970;2023-03-20T19:52:53;101457.31;;;7.16;100.00
39823;BME280;25499;53.958;10.970;2023-03-20T19:55:21;101460.47;;;7.40;100.00
39823;BME280;25499;53.958;10.970;2023-03-20T19:57:46;101460.16;;;7.26;100.00
39823;BME280;25499;53.958;10.970;2023-03-20T20:00:13;101462.72;;;7.25;100.00
39823;BME280;25499;53.958;10.970;2023-03-20T20:02:39;101459.00;;;7.14;100.00
39823;BME280;25499;53.958;10.970;2023-03-20T20:05:06;101460.81;;;7.16;100.00
39823;BME280;25499;53.958;10.970;2023-03-20T20:07:31;101463.22;;;7.08;100.00
39823;BME280;25499;53.958;10.970;2023-03-20T20:09:57;101464.38;;;7.23;100.00
39823;BME280;25499;53.958;10.970;2023-03-20T20:12:22;101457.34;;;7.17;100.00
39823;BME280;25499;53.958;10.970;2023-03-20T20:14:48;101456.41;;;7.14;100.00
39823;BME280;25499;53.958;10.970;2023-03-20T20:17:13;101452.06;;;7.13;100.00
39823;BME280;25499;53.958;10.970;2023-03-20T20:19:39;101451.19;;;7.12;100.00
39823;BME280;25499;53.958;10.970;2023-03-20T20:22:04;101459.84;;;7.13;100.00
39823;BME280;25499;53.958;10.970;2023-03-20T20:24:30;101455.59;;;7.15;100.00
39823;BME280;25499;53.958;10.970;2023-03-20T20:26:55;101459.91;;;7.16;100.00
39823;BME280;25499;53.958;10.970;2023-03-20T20:29:21;101460.53;;;7.05;100.00
39823;BME280;25499;53.958;10.970;2023-03-20T20:31:48;101459.84;;;7.13;100.00
39823;BME280;25499;53.958;10.970;2023-03-20T20:34:14;101459.78;;;7.09;100.00
39823;BME280;25499;53.958;10.970;2023-03-20T20:36:39;101463.06;;;7.02;100.00
39823;BME280;25499;53.958;10.970;2023-03-20T20:39:05;101461.13;;;6.94;100.00
39823;BME280;25499;53.958;10.970;2023-03-20T20:41:30;101468.31;;;7.05;100.00
39823;BME280;25499;53.958;10.970;2023-03-20T20:43:56;101472.81;;;7.14;100.00
39823;BME280;25499;53.958;10.970;2023-03-20T20:46:21;101474.72;;;7.21;100.00
39823;BME280;25499;53.958;10.970;2023-03-20T20:48:48;101475.66;;;7.25;100.00
39823;BME280;25499;53.958;10.970;2023-03-20T20:51:14;101472.66;;;7.06;100.00
39823;BME280;25499;53.958;10.970;2023-03-20T20:53:40;101466.84;;;7.17;100.00
39823;BME280;25499;53.958;10.970;2023-03-20T20:56:06;101476.94;;;7.04;100.00
39823;BME280;25499;53.958;10.970;2023-03-20T20:58:31;101477.25;;;7.18;100.00
